createdAt,value
2018-12-28T00:01:15.128Z,1.00
2018-12-28T00:03:44.473Z,1.00
2018-12-28T00:06:13.924Z,1.00
2018-12-28T00:08:43.191Z,0.90
2018-12-28T00:11:12.554Z,0.90
2018-12-28T00:13:41.925Z,0.90
2018-12-28T00:16:11.170Z,0.90
2018-12-28T00:18:40.360Z,0.90
2018-12-28T00:21:09.680Z,0.80
2018-12-28T00:23:38.863Z,0.80
2018-12-28T00:26:08.198Z,0.70
2018-12-28T00:28:37.408Z,0.70
2018-12-28T00:31:06.590Z,0.80
2018-12-28T00:33:35.909Z,0.80
2018-12-28T00:36:05.266Z,0.80
2018-12-28T00:38:34.502Z,0.80
2018-12-28T00:41:03.813Z,0.70
2018-12-28T00:43:33.374Z,0.70
2018-12-28T00:46:02.687Z,0.70
2018-12-28T00:48:32.105Z,0.60
2018-12-28T00:51:01.474Z,0.60
2018-12-28T00:53:30.765Z,0.50
2018-12-28T00:56:00.085Z,0.50
2018-12-28T00:58:29.365Z,0.60
2018-12-28T01:00:58.541Z,0.60
2018-12-28T01:03:27.795Z,0.60
2018-12-28T01:05:57.100Z,0.50
2018-12-28T01:08:26.297Z,0.60
2018-12-28T01:10:55.617Z,0.60
2018-12-28T01:13:25.060Z,0.60
2018-12-28T01:15:54.354Z,0.50
2018-12-28T01:18:23.669Z,0.50
2018-12-28T01:20:52.874Z,0.40
2018-12-28T01:23:22.182Z,0.40
2018-12-28T01:25:51.518Z,0.50
2018-12-28T01:28:20.796Z,0.50
2018-12-28T01:30:49.983Z,0.50
2018-12-28T01:33:19.296Z,0.50
2018-12-28T01:35:48.515Z,0.60
2018-12-28T01:38:18.860Z,0.60
2018-12-28T01:40:48.110Z,0.60
2018-12-28T01:43:17.518Z,0.60
2018-12-28T01:45:47.215Z,0.60
2018-12-28T01:48:16.450Z,0.70
2018-12-28T01:50:45.963Z,0.80
2018-12-28T01:53:15.210Z,0.80
2018-12-28T01:55:44.767Z,0.90
2018-12-28T01:58:14.033Z,0.80
2018-12-28T02:00:43.223Z,0.90
2018-12-28T02:03:12.510Z,0.80
2018-12-28T02:05:41.764Z,0.80
2018-12-28T02:08:11.004Z,0.70
2018-12-28T02:10:40.168Z,0.70
2018-12-28T02:13:09.369Z,0.60
2018-12-28T02:15:38.541Z,0.60
2018-12-28T02:18:07.893Z,0.60
2018-12-28T02:20:37.084Z,0.60
2018-12-28T02:23:06.701Z,0.50
2018-12-28T02:25:35.906Z,0.40
2018-12-28T02:28:05.126Z,0.40
2018-12-28T02:30:53.249Z,0.40
2018-12-28T02:33:27.119Z,0.40
2018-12-28T02:35:56.456Z,0.20
2018-12-28T02:38:25.620Z,0.10
2018-12-28T02:40:54.962Z,0.10
2018-12-28T02:43:24.239Z,0.10
2018-12-28T02:45:53.471Z,0.10
2018-12-28T02:48:22.682Z,0.00
2018-12-28T02:50:51.875Z,0.00
2018-12-28T02:53:21.113Z,0.00
2018-12-28T02:55:50.379Z,0.00
2018-12-28T02:58:19.557Z,-0.10
2018-12-28T03:00:48.821Z,-0.10
2018-12-28T03:03:18.090Z,0.00
2018-12-28T03:05:47.356Z,0.00
2018-12-28T03:08:16.515Z,0.00
2018-12-28T03:10:45.789Z,-0.10
2018-12-28T03:13:15.021Z,-0.10
2018-12-28T03:15:44.233Z,-0.20
2018-12-28T03:18:13.653Z,-0.10
2018-12-28T03:20:42.975Z,-0.10
2018-12-28T03:23:12.238Z,-0.10
2018-12-28T03:25:41.519Z,-0.20
2018-12-28T03:28:10.898Z,-0.20
2018-12-28T03:30:40.135Z,-0.20
2018-12-28T03:33:09.462Z,-0.30
2018-12-28T03:35:38.728Z,-0.30
2018-12-28T03:38:07.900Z,-0.40
2018-12-28T03:40:37.090Z,-0.40
2018-12-28T03:43:06.342Z,-0.40
2018-12-28T03:45:35.591Z,-0.50
2018-12-28T03:48:04.863Z,-0.40
2018-12-28T03:50:34.111Z,-0.40
2018-12-28T03:53:03.489Z,-0.50
2018-12-28T03:55:32.755Z,-0.50
2018-12-28T03:58:02.480Z,-0.50
2018-12-28T04:00:32.020Z,-0.50
2018-12-28T04:03:01.228Z,-0.50
2018-12-28T04:05:30.470Z,-0.50
2018-12-28T04:07:59.662Z,-0.50
2018-12-28T04:10:28.933Z,-0.60
2018-12-28T04:12:58.111Z,-0.60
2018-12-28T04:15:27.430Z,-0.70
2018-12-28T04:17:56.706Z,-0.70
2018-12-28T04:20:26.146Z,-0.70
2018-12-28T04:22:55.400Z,-0.70
2018-12-28T04:25:24.619Z,-0.70
2018-12-28T04:27:53.857Z,-0.70
2018-12-28T04:30:23.049Z,-0.80
2018-12-28T04:32:52.266Z,-0.90
2018-12-28T04:35:21.444Z,-0.80
2018-12-28T04:37:50.620Z,-0.80
2018-12-28T04:40:19.887Z,-0.80
2018-12-28T04:42:49.134Z,-0.80
2018-12-28T04:45:18.409Z,-0.90
2018-12-28T04:47:47.613Z,-0.90
2018-12-28T04:50:16.880Z,-0.80
2018-12-28T04:52:47.130Z,-0.80
2018-12-28T04:55:17.024Z,-0.80
2018-12-28T04:57:46.975Z,-0.90
2018-12-28T05:00:16.223Z,-0.90
2018-12-28T05:03:15.862Z,-0.90
2018-12-28T05:06:38.360Z,-0.90
2018-12-28T05:09:41.568Z,-0.90
2018-12-28T05:12:54.074Z,-0.90
2018-12-28T05:15:52.031Z,-1.00
2018-12-28T05:18:56.245Z,-1.00
2018-12-28T05:22:05.319Z,-1.00
2018-12-28T05:25:00.469Z,-1.00
2018-12-28T05:27:58.431Z,-1.00
2018-12-28T05:30:52.117Z,-1.10
2018-12-28T05:33:21.333Z,-1.10
2018-12-28T05:35:50.577Z,-1.10
2018-12-28T05:38:19.767Z,-1.10
2018-12-28T05:40:48.980Z,-1.00
2018-12-28T05:46:59.697Z,-0.90
2018-12-28T05:49:28.939Z,-0.90
2018-12-28T05:51:58.124Z,-0.90
2018-12-28T05:54:27.421Z,-0.90
2018-12-28T05:56:56.681Z,-1.00
2018-12-28T05:59:25.923Z,-1.00
2018-12-28T06:01:55.287Z,-1.10
2018-12-28T06:04:24.563Z,-1.10
2018-12-28T06:06:53.811Z,-1.00
2018-12-28T06:09:23.225Z,-1.10
2018-12-28T06:11:52.453Z,-1.00
2018-12-28T06:14:21.995Z,-1.10
2018-12-28T06:16:51.403Z,-1.10
2018-12-28T06:19:20.604Z,-1.10
2018-12-28T06:21:49.783Z,-1.10
2018-12-28T06:24:19.006Z,-1.10
2018-12-28T06:26:48.256Z,-1.10
2018-12-28T06:29:17.580Z,-1.20
2018-12-28T06:31:46.795Z,-1.20
2018-12-28T06:34:15.969Z,-1.20
2018-12-28T06:36:45.222Z,-1.30
2018-12-28T06:39:17.052Z,-1.30
2018-12-28T06:41:46.302Z,-1.20
2018-12-28T06:44:15.556Z,-1.20
2018-12-28T06:46:44.826Z,-1.20
2018-12-28T06:49:14.060Z,-1.10
2018-12-28T06:51:45.540Z,-1.10
2018-12-28T06:55:04.922Z,-1.10
2018-12-28T06:58:25.902Z,-1.10
2018-12-28T07:01:31.093Z,-1.10
2018-12-28T07:04:46.045Z,-1.10
2018-12-28T07:08:10.630Z,-1.10
2018-12-28T07:11:15.126Z,-1.20
2018-12-28T07:14:32.172Z,-1.30
2018-12-28T07:17:51.808Z,-1.20
2018-12-28T07:21:10.208Z,-1.30
2018-12-28T07:24:07.955Z,-1.20
2018-12-28T07:27:29.700Z,-1.20
2018-12-28T07:30:34.645Z,-1.20
2018-12-28T07:33:45.657Z,-1.20
2018-12-28T07:37:08.876Z,-1.20
2018-12-28T07:40:03.336Z,-1.10
2018-12-28T07:43:17.297Z,-1.10
2018-12-28T07:46:32.724Z,-1.10
2018-12-28T07:49:45.975Z,-1.00
2018-12-28T07:52:58.241Z,-1.10
2018-12-28T07:55:58.239Z,-1.00
2018-12-28T07:58:55.086Z,-1.00
2018-12-28T08:02:15.931Z,-1.00
2018-12-28T08:05:12.305Z,-1.10
2018-12-28T08:08:05.938Z,-1.10
2018-12-28T08:11:24.347Z,-1.10
2018-12-28T08:14:39.719Z,-1.00
2018-12-28T08:18:20.184Z,-1.00
2018-12-28T08:21:34.691Z,-0.90
2018-12-28T08:24:35.547Z,-0.90
2018-12-28T08:27:51.353Z,-0.90
2018-12-28T08:30:49.164Z,-1.00
2018-12-28T08:33:43.186Z,-0.90
2018-12-28T08:36:39.036Z,-0.80
2018-12-28T08:39:47.256Z,-0.70
2018-12-28T08:43:05.667Z,-0.50
2018-12-28T08:46:21.944Z,-0.50
2018-12-28T08:49:37.214Z,-0.40
2018-12-28T08:52:41.515Z,-0.30
2018-12-28T08:55:53.506Z,-0.20
2018-12-28T08:59:06.786Z,-0.10
2018-12-28T09:02:15.058Z,0.00
2018-12-28T09:05:23.424Z,0.10
2018-12-28T09:08:26.614Z,0.20
2018-12-28T09:11:33.928Z,0.30
2018-12-28T09:15:02.187Z,0.40
2018-12-28T09:18:05.166Z,0.40
2018-12-28T09:21:07.745Z,0.50
2018-12-28T09:24:04.044Z,0.60
2018-12-28T09:27:08.177Z,0.60
2018-12-28T09:30:08.113Z,0.60
2018-12-28T09:33:09.469Z,0.70
2018-12-28T09:36:40.842Z,0.70
2018-12-28T09:39:54.641Z,0.90
2018-12-28T09:43:16.689Z,0.90
2018-12-28T09:46:35.569Z,0.90
2018-12-28T09:49:40.726Z,0.90
2018-12-28T09:52:32.277Z,1.00
2018-12-28T09:55:22.330Z,1.00
2018-12-28T09:58:05.214Z,1.10
2018-12-28T10:01:26.634Z,1.20
2018-12-28T10:04:29.888Z,1.20
2018-12-28T10:07:14.716Z,1.20
2018-12-28T10:10:10.444Z,1.30
2018-12-28T10:13:23.645Z,1.30
2018-12-28T10:16:06.120Z,1.30
2018-12-28T10:18:35.436Z,1.40
2018-12-28T10:21:04.777Z,1.40
2018-12-28T10:23:34.112Z,1.50
2018-12-28T10:26:03.458Z,1.50
2018-12-28T10:28:32.759Z,1.60
2018-12-28T10:31:02.237Z,1.60
2018-12-28T10:33:36.710Z,1.60
2018-12-28T10:36:02.605Z,1.60
2018-12-28T10:38:31.984Z,1.60
2018-12-28T10:41:01.517Z,1.60
2018-12-28T10:43:30.852Z,1.60
2018-12-28T10:46:00.328Z,1.70
2018-12-28T10:48:29.572Z,1.80
2018-12-28T10:50:58.920Z,1.80
2018-12-28T10:53:28.171Z,1.90
2018-12-28T10:55:57.495Z,1.90
2018-12-28T10:58:26.713Z,1.90
2018-12-28T11:00:55.923Z,1.80
2018-12-28T11:03:25.299Z,1.70
2018-12-28T11:05:54.628Z,1.70
2018-12-28T11:08:23.918Z,1.80
2018-12-28T11:10:53.216Z,1.80
2018-12-28T11:13:22.682Z,1.80
2018-12-28T11:15:51.912Z,1.80
2018-12-28T11:22:01.131Z,1.80
2018-12-28T11:24:30.399Z,1.90
2018-12-28T11:26:59.667Z,1.90
2018-12-28T11:29:28.989Z,2.00
2018-12-28T11:31:58.233Z,2.00
2018-12-28T11:34:27.531Z,2.00
2018-12-28T11:36:56.889Z,2.00
2018-12-28T11:39:26.060Z,2.00
2018-12-28T11:41:55.337Z,2.00
2018-12-28T11:44:24.608Z,2.00
2018-12-28T11:46:53.866Z,2.00
2018-12-28T11:49:23.064Z,2.00
2018-12-28T11:51:52.288Z,1.90
2018-12-28T11:54:21.479Z,1.80
2018-12-28T11:56:50.798Z,1.70
2018-12-28T11:59:20.027Z,1.60
2018-12-28T12:01:49.364Z,1.60
2018-12-28T12:04:18.626Z,1.60
2018-12-28T12:06:47.874Z,1.50
2018-12-28T12:09:17.124Z,1.50
2018-12-28T12:11:46.480Z,1.50
2018-12-28T12:14:15.799Z,1.60
2018-12-28T12:16:45.251Z,1.80
2018-12-28T12:19:14.604Z,2.00
2018-12-28T12:21:44.174Z,2.10
2018-12-28T12:24:13.399Z,2.10
2018-12-28T12:26:42.905Z,2.00
2018-12-28T12:29:12.494Z,1.90
2018-12-28T12:31:41.836Z,1.90
2018-12-28T12:34:11.096Z,2.00
2018-12-28T12:36:40.450Z,2.00
2018-12-28T12:39:09.770Z,1.90
2018-12-28T12:41:38.961Z,1.80
2018-12-28T12:44:08.193Z,1.80
2018-12-28T12:46:37.448Z,1.90
2018-12-28T12:49:06.702Z,1.70
2018-12-28T12:51:36.014Z,1.70
2018-12-28T12:54:05.230Z,1.70
2018-12-28T12:56:34.474Z,1.70
2018-12-28T12:59:03.780Z,1.70
2018-12-28T13:01:36.290Z,1.70
2018-12-28T13:04:04.115Z,1.80
2018-12-28T13:06:33.383Z,1.80
2018-12-28T13:09:02.723Z,1.70
2018-12-28T13:11:32.247Z,1.80
2018-12-28T13:14:01.584Z,1.80
2018-12-28T13:16:30.958Z,1.90
2018-12-28T13:19:00.211Z,1.90
2018-12-28T13:21:29.513Z,1.90
2018-12-28T13:23:58.797Z,1.80
2018-12-28T13:26:28.115Z,1.80
2018-12-28T13:28:57.418Z,1.90
2018-12-28T13:31:26.632Z,2.00
2018-12-28T13:33:58.767Z,2.00
2018-12-28T13:36:28.077Z,2.10
2018-12-28T13:38:58.727Z,2.20
2018-12-28T13:41:27.903Z,2.10
2018-12-28T13:43:57.208Z,2.10
2018-12-28T13:46:26.510Z,2.10
2018-12-28T13:48:55.768Z,2.10
2018-12-28T13:51:25.073Z,2.20
2018-12-28T13:53:54.288Z,2.10
2018-12-28T13:56:23.654Z,2.20
2018-12-28T13:58:53.163Z,2.00
2018-12-28T14:01:22.564Z,2.00
2018-12-28T14:03:51.960Z,1.90
2018-12-28T14:06:21.183Z,2.00
2018-12-28T14:08:50.876Z,2.10
2018-12-28T14:11:20.187Z,2.10
2018-12-28T14:13:49.658Z,2.10
2018-12-28T14:16:19.550Z,2.10
2018-12-28T14:18:48.940Z,2.10
2018-12-28T14:21:18.180Z,1.90
2018-12-28T14:23:47.502Z,1.80
2018-12-28T14:26:19.325Z,1.60
2018-12-28T14:28:48.614Z,1.70
2018-12-28T14:31:18.112Z,1.60
2018-12-28T14:33:47.508Z,1.60
2018-12-28T14:36:16.815Z,1.70
2018-12-28T14:38:46.136Z,1.70
2018-12-28T14:41:15.504Z,1.80
2018-12-28T14:43:45.156Z,2.00
2018-12-28T14:46:14.636Z,2.00
2018-12-28T14:48:44.086Z,1.90
2018-12-28T14:51:15.158Z,1.70
2018-12-28T14:53:44.590Z,1.60
2018-12-28T14:56:13.972Z,1.60
2018-12-28T14:58:43.358Z,1.60
2018-12-28T15:01:14.877Z,1.60
2018-12-28T15:03:46.980Z,1.50
2018-12-28T15:06:16.306Z,1.50
2018-12-28T15:08:45.840Z,1.50
2018-12-28T15:11:15.102Z,1.50
2018-12-28T15:13:44.448Z,1.50
2018-12-28T15:16:15.396Z,1.50
2018-12-28T15:18:44.776Z,1.50
2018-12-28T15:21:14.065Z,1.50
2018-12-28T15:23:43.368Z,1.50
2018-12-28T15:26:12.544Z,1.50
2018-12-28T15:28:41.941Z,1.50
2018-12-28T15:31:11.136Z,1.50
2018-12-28T15:33:40.458Z,1.60
2018-12-28T15:36:09.760Z,1.70
2018-12-28T15:38:39.244Z,1.70
2018-12-28T15:41:08.620Z,1.60
2018-12-28T15:43:38.007Z,1.60
2018-12-28T15:46:07.750Z,1.60
2018-12-28T15:48:37.077Z,1.70
2018-12-28T15:51:06.557Z,1.70
2018-12-28T15:53:36.222Z,1.70
2018-12-28T15:56:05.571Z,1.70
2018-12-28T15:58:34.791Z,1.70
2018-12-28T16:01:04.053Z,1.70
2018-12-28T16:03:33.353Z,1.80
2018-12-28T16:06:02.691Z,1.80
2018-12-28T16:08:31.945Z,1.90
2018-12-28T16:11:01.131Z,1.90
2018-12-28T16:13:30.532Z,1.90
2018-12-28T16:16:00.175Z,1.80
2018-12-28T16:18:29.651Z,1.80
2018-12-28T16:21:01.966Z,1.80
2018-12-28T16:23:31.254Z,1.80
2018-12-28T16:26:00.502Z,1.80
2018-12-28T16:28:29.910Z,1.80
2018-12-28T16:30:59.258Z,1.80
2018-12-28T16:33:28.455Z,1.80
2018-12-28T16:35:57.901Z,1.80
2018-12-28T16:38:27.158Z,1.90
2018-12-28T16:40:56.346Z,1.80
2018-12-28T16:43:25.764Z,1.80
2018-12-28T16:45:55.303Z,1.80
2018-12-28T16:48:24.566Z,1.80
2018-12-28T16:50:53.933Z,1.70
2018-12-28T16:53:23.127Z,1.80
2018-12-28T16:55:52.444Z,1.90
2018-12-28T16:58:22.147Z,1.90
2018-12-28T17:00:51.435Z,2.00
2018-12-28T17:03:20.680Z,2.00
2018-12-28T17:05:50.066Z,2.00
2018-12-28T17:08:19.327Z,1.90
2018-12-28T17:10:48.707Z,1.90
2018-12-28T17:13:18.090Z,2.00
2018-12-28T17:15:47.259Z,2.00
2018-12-28T17:18:16.768Z,2.00
2018-12-28T17:20:46.097Z,1.90
2018-12-28T17:23:15.746Z,1.90
2018-12-28T17:25:45.115Z,1.90
2018-12-28T17:28:14.418Z,1.90
2018-12-28T17:30:43.677Z,1.90
2018-12-28T17:33:13.011Z,2.00
2018-12-28T17:35:42.295Z,2.00
2018-12-28T17:38:11.581Z,2.00
2018-12-28T17:40:40.863Z,2.00
2018-12-28T17:43:10.243Z,2.00
2018-12-28T17:45:39.455Z,2.00
2018-12-28T17:48:08.684Z,2.00
2018-12-28T17:50:38.034Z,2.10
2018-12-28T17:53:07.355Z,2.10
2018-12-28T17:55:36.634Z,2.10
2018-12-28T17:58:05.837Z,2.00
2018-12-28T18:00:35.178Z,2.10
2018-12-28T18:03:04.528Z,2.10
2018-12-28T18:05:33.828Z,2.10
2018-12-28T18:08:03.175Z,2.10
2018-12-28T18:10:32.445Z,2.00
2018-12-28T18:13:01.920Z,2.10
2018-12-28T18:15:31.180Z,2.10
2018-12-28T18:18:03.710Z,2.10
2018-12-28T18:20:32.996Z,2.20
2018-12-28T18:23:02.270Z,2.20
2018-12-28T18:25:31.638Z,2.20
2018-12-28T18:28:01.225Z,2.20
2018-12-28T18:30:30.422Z,2.20
2018-12-28T18:32:59.665Z,2.20
2018-12-28T18:35:28.874Z,2.20
2018-12-28T18:38:00.201Z,2.20
2018-12-28T18:40:29.219Z,2.20
2018-12-28T18:43:01.419Z,2.30
2018-12-28T18:45:30.671Z,2.30
2018-12-28T18:47:59.947Z,2.30
2018-12-28T18:50:29.242Z,2.30
2018-12-28T18:52:58.514Z,2.30
2018-12-28T18:55:27.859Z,2.30
2018-12-28T18:57:57.147Z,2.30
2018-12-28T19:00:26.335Z,2.20
2018-12-28T19:02:56.985Z,2.30
2018-12-28T19:05:26.376Z,2.30
2018-12-28T19:07:55.617Z,2.30
2018-12-28T19:10:24.866Z,2.40
2018-12-28T19:12:54.303Z,2.40
2018-12-28T19:15:24.037Z,2.40
2018-12-28T19:17:53.309Z,2.40
2018-12-28T19:20:22.613Z,2.50
2018-12-28T19:22:51.989Z,2.50
2018-12-28T19:25:21.360Z,2.40
2018-12-28T19:27:50.631Z,2.40
2018-12-28T19:30:19.826Z,2.50
2018-12-28T19:32:49.083Z,2.50
2018-12-28T19:35:19.506Z,2.50
2018-12-28T19:37:48.766Z,2.60
2018-12-28T19:40:18.024Z,2.50
2018-12-28T19:42:47.343Z,2.60
2018-12-28T19:45:16.678Z,2.50
2018-12-28T19:47:46.048Z,2.60
2018-12-28T19:50:15.634Z,2.60
2018-12-28T19:52:44.964Z,2.60
2018-12-28T19:55:14.308Z,2.70
2018-12-28T19:57:43.676Z,2.70
2018-12-28T20:00:13.063Z,2.70
2018-12-28T20:02:42.308Z,2.70
2018-12-28T20:05:11.584Z,2.70
2018-12-28T20:07:41.012Z,2.70
2018-12-28T20:10:10.285Z,2.70
2018-12-28T20:12:39.600Z,2.70
2018-12-28T20:15:09.230Z,2.70
2018-12-28T20:17:38.685Z,2.70
2018-12-28T20:20:08.176Z,2.70
2018-12-28T20:22:37.516Z,2.70
2018-12-28T20:25:07.050Z,2.70
2018-12-28T20:27:36.386Z,2.70
2018-12-28T20:30:06.300Z,2.70
2018-12-28T20:32:35.670Z,2.70
2018-12-28T20:35:05.133Z,2.70
2018-12-28T20:37:34.611Z,2.70
2018-12-28T20:40:04.293Z,2.80
2018-12-28T20:42:33.489Z,2.80
2018-12-28T20:45:02.681Z,2.80
2018-12-28T20:47:31.935Z,2.70
2018-12-28T20:50:01.319Z,2.70
2018-12-28T20:52:30.595Z,2.80
2018-12-28T20:55:00.227Z,2.80
2018-12-28T20:57:29.658Z,2.80
2018-12-28T20:59:59.170Z,2.80
2018-12-28T21:02:28.359Z,2.90
2018-12-28T21:04:57.732Z,2.80
2018-12-28T21:07:26.990Z,2.80
2018-12-28T21:09:56.202Z,2.70
2018-12-28T21:12:25.631Z,2.70
2018-12-28T21:14:54.812Z,2.80
2018-12-28T21:17:23.998Z,2.80
2018-12-28T21:19:53.208Z,2.80
2018-12-28T21:22:22.491Z,2.70
2018-12-28T21:24:51.821Z,2.80
2018-12-28T21:27:21.274Z,2.80
2018-12-28T21:29:50.456Z,2.80
2018-12-28T21:32:20.045Z,2.80
2018-12-28T21:34:50.431Z,2.80
2018-12-28T21:37:19.617Z,2.80
2018-12-28T21:39:48.950Z,2.80
2018-12-28T21:42:18.233Z,2.80
2018-12-28T21:44:47.499Z,2.90
2018-12-28T21:47:16.703Z,2.90
2018-12-28T21:49:45.996Z,2.90
2018-12-28T21:52:17.429Z,2.90
2018-12-28T21:54:46.746Z,2.90
2018-12-28T21:57:16.052Z,3.00
2018-12-28T21:59:48.408Z,2.90
2018-12-28T22:02:17.757Z,2.90
2018-12-28T22:04:48.229Z,2.80
2018-12-28T22:07:17.687Z,2.90
2018-12-28T22:09:46.923Z,2.90
2018-12-28T22:12:17.349Z,2.90
2018-12-28T22:14:46.827Z,2.90
2018-12-28T22:17:16.121Z,3.00
2018-12-28T22:19:45.347Z,2.90
2018-12-28T22:22:14.603Z,2.90
2018-12-28T22:24:43.784Z,3.00
2018-12-28T22:27:13.160Z,2.90
2018-12-28T22:29:42.484Z,3.00
2018-12-28T22:32:11.828Z,3.00
2018-12-28T22:34:41.114Z,3.00
2018-12-28T22:37:10.344Z,3.00
2018-12-28T22:39:39.652Z,3.00
2018-12-28T22:42:12.848Z,3.00
2018-12-28T22:44:42.148Z,3.00
2018-12-28T22:47:11.398Z,3.00
2018-12-28T22:49:40.825Z,3.00
2018-12-28T22:52:10.008Z,3.00
2018-12-28T22:54:39.196Z,3.00
2018-12-28T22:57:11.671Z,3.00
2018-12-28T22:59:41.098Z,3.10
2018-12-28T23:02:10.282Z,3.10
2018-12-28T23:04:39.485Z,3.10
2018-12-28T23:07:08.735Z,3.00
2018-12-28T23:09:38.141Z,3.10
2018-12-28T23:12:07.402Z,3.10
2018-12-28T23:14:40.209Z,3.20
2018-12-28T23:17:07.716Z,3.20
2018-12-28T23:19:37.080Z,3.20
2018-12-28T23:22:06.340Z,3.20
2018-12-28T23:24:35.866Z,3.20
2018-12-28T23:27:05.432Z,3.20
2018-12-28T23:29:34.709Z,3.30
2018-12-28T23:32:03.996Z,3.20
2018-12-28T23:34:33.271Z,3.20
2018-12-28T23:37:02.558Z,3.30
2018-12-28T23:39:31.822Z,3.30
2018-12-28T23:42:01.139Z,3.30
2018-12-28T23:44:30.482Z,3.30
2018-12-28T23:46:59.731Z,3.30
2018-12-28T23:49:29.378Z,3.30
2018-12-28T23:52:01.687Z,3.30
2018-12-28T23:54:31.003Z,3.40
2018-12-28T23:57:00.297Z,3.40
2018-12-28T23:59:29.577Z,3.40
